Time;durP1;ratioP1;P1;durP2;ratioP2;P2;SDS_P1;SDS_P2;PMS_P1;PMS_P2;Temp;Humidity;BMP_temperature;BMP_pressure;BME280_temperature;BME280_humidity;BME280_pressure;Samples;Min_cycle;Max_cycle;Signal;HPM_P1;HPM_P2
2021/04/08 00:00:00;;;;;;;1.27;1.13;;;;;;;;;;5072816;28;20225;-72
2021/04/08 00:02:29;;;;;;;9.65;1.30;;;3.90;1.00;;;;;;5083371;28;20170;-72
2021/04/08 00:04:54;;;;;;;4.22;1.20;;;3.80;1.00;;;;;;5073712;28;20680;-71
2021/04/08 00:07:20;;;;;;;3.23;1.30;;;;;;;;;;5072614;28;20269;-72
2021/04/08 00:09:46;;;;;;;1.35;1.23;;;3.80;1.00;;;;;;5072929;28;20190;-72
2021/04/08 00:12:12;;;;;;;2.37;1.33;;;3.80;1.00;;;;;;5073415;28;20242;-73
2021/04/08 00:14:38;;;;;;;10.13;2.70;;;3.60;1.00;;;;;;5072493;28;20656;-73
2021/04/08 00:17:04;;;;;;;2.20;1.30;;;3.70;1.00;;;;;;5071320;28;20447;-72
2021/04/08 00:19:31;;;;;;;1.38;1.27;;;;;;;;;;5072964;28;20171;-73
2021/04/08 00:21:56;;;;;;;11.23;1.33;;;3.70;1.00;;;;;;5073236;28;20257;-72
2021/04/08 00:24:22;;;;;;;1.00;0.90;;;3.70;1.00;;;;;;5073211;28;20665;-72
2021/04/08 00:26:49;;;;;;;2.28;1.13;;;;;;;;;;5073096;28;20163;-72
2021/04/08 00:29:14;;;;;;;1.35;1.25;;;3.70;1.00;;;;;;5072650;28;20170;-71
2021/04/08 00:31:40;;;;;;;1.67;1.13;;;3.70;1.00;;;;;;5072440;28;20497;-72
2021/04/08 00:34:06;;;;;;;2.00;1.20;;;3.70;1.00;;;;;;5072486;28;20194;-71
2021/04/08 00:36:31;;;;;;;1.13;1.00;;;3.70;1.00;;;;;;5073004;28;20179;-71
2021/04/08 00:38:57;;;;;;;1.47;0.90;;;3.70;1.00;;;;;;5072678;28;20274;-71
2021/04/08 00:41:29;;;;;;;1.50;0.90;;;3.70;1.00;;;;;;5072769;28;20167;-72
2021/04/08 00:43:57;;;;;;;0.90;0.75;;;3.70;1.00;;;;;;5071267;28;20175;-72
2021/04/08 00:46:28;;;;;;;4.10;1.02;;;3.70;1.00;;;;;;5066649;28;20233;-72
2021/04/08 00:48:54;;;;;;;1.38;1.27;;;3.70;1.00;;;;;;5065743;28;20191;-72
2021/04/08 00:51:21;;;;;;;1.57;1.47;;;3.70;1.00;;;;;;5075448;28;20202;-71
2021/04/08 00:53:47;;;;;;;1.80;1.27;;;3.60;1.00;;;;;;5071195;28;20511;-72
2021/04/08 00:56:14;;;;;;;1.38;1.00;;;3.60;1.00;;;;;;5075423;28;20248;-72
2021/04/08 00:58:42;;;;;;;3.92;1.25;;;3.50;1.00;;;;;;5076390;28;20159;-72
2021/04/08 01:01:08;;;;;;;2.25;1.23;;;3.60;1.00;;;;;;5076757;28;20175;-72
2021/04/08 01:03:34;;;;;;;1.50;1.23;;;3.60;1.00;;;;;;5076402;28;20171;-72
2021/04/08 01:06:00;;;;;;;16.10;1.40;;;;;;;;;;5076573;28;20775;-71
2021/04/08 01:08:26;;;;;;;2.28;1.10;;;3.60;1.00;;;;;;5075928;28;20626;-71
2021/04/08 01:10:51;;;;;;;0.90;0.90;;;3.50;1.00;;;;;;5076302;28;20199;-71
2021/04/08 01:13:20;;;;;;;1.40;1.00;;;3.50;1.00;;;;;;5076290;28;20178;-71
2021/04/08 01:15:46;;;;;;;9.13;1.38;;;3.50;1.00;;;;;;5060423;28;20634;-71
2021/04/08 01:18:29;;;;;;;3.20;1.33;;;3.40;1.00;;;;;;5074019;28;20183;-71
2021/04/08 01:21:01;;;;;;;4.95;1.70;;;3.30;1.00;;;;;;5076324;28;20673;-73
2021/04/08 01:23:55;;;;;;;4.70;1.33;;;3.40;1.00;;;;;;5070818;28;20205;-72
2021/04/08 01:26:27;;;;;;;4.97;1.55;;;3.20;1.00;;;;;;5076121;28;20179;-73
2021/04/08 01:29:13;;;;;;;1.10;1.10;;;3.10;1.00;;;;;;5075105;28;20191;-73
2021/04/08 01:31:40;;;;;;;1.90;1.45;;;3.00;1.00;;;;;;5075853;28;20171;-73
2021/04/08 01:34:10;;;;;;;3.05;1.38;;;3.00;1.00;;;;;;5075298;28;20679;-73
2021/04/08 01:36:37;;;;;;;2.78;1.70;;;3.00;1.00;;;;;;5076057;28;20183;-71
2021/04/08 01:39:05;;;;;;;2.05;1.40;;;2.90;1.00;;;;;;5075264;28;20199;-71
2021/04/08 01:41:37;;;;;;;2.35;1.75;;;2.80;1.00;;;;;;5074417;28;20521;-72
2021/04/08 01:44:05;;;;;;;2.05;1.35;;;2.80;1.00;;;;;;5075261;28;20167;-71
2021/04/08 01:46:38;;;;;;;6.13;2.05;;;2.80;1.00;;;;;;5074984;28;20175;-71
2021/04/08 01:49:05;;;;;;;3.45;1.70;;;2.70;1.00;;;;;;5075217;28;20171;-71
2021/04/08 01:51:33;;;;;;;1.55;1.08;;;2.70;1.00;;;;;;5076002;28;20622;-73
2021/04/08 01:54:03;;;;;;;1.48;1.17;;;2.60;1.00;;;;;;5075608;28;20183;-73
2021/04/08 01:56:37;;;;;;;1.33;1.23;;;2.50;1.00;;;;;;5075391;28;20186;-73
2021/04/08 01:59:04;;;;;;;1.20;1.20;;;2.40;1.00;;;;;;5075152;28;20190;-72
2021/04/08 02:01:31;;;;;;;2.88;1.13;;;2.30;1.00;;;;;;5074879;28;20167;-72
2021/04/08 02:03:57;;;;;;;1.42;1.13;;;2.30;1.00;;;;;;5074557;28;20577;-73
2021/04/08 02:06:30;;;;;;;2.20;1.42;;;2.20;1.00;;;;;;5075618;28;20191;-72
2021/04/08 02:08:57;;;;;;;1.38;0.90;;;2.10;1.00;;;;;;5075382;28;20183;-73
2021/04/08 02:11:25;;;;;;;4.40;1.30;;;2.10;1.00;;;;;;5075414;28;20617;-72
2021/04/08 02:13:52;;;;;;;8.60;1.70;;;2.10;1.00;;;;;;5074874;28;20236;-73
2021/04/08 02:16:20;;;;;;;6.22;1.77;;;2.00;1.00;;;;;;5074912;28;20182;-73
2021/04/08 02:18:48;;;;;;;7.95;1.70;;;2.00;1.00;;;;;;5073758;28;20189;-73
2021/04/08 02:21:15;;;;;;;1.70;1.13;;;2.00;1.00;;;;;;5075291;28;20175;-72
2021/04/08 02:23:43;;;;;;;1.90;1.20;;;1.90;1.00;;;;;;5080958;28;20193;-72
2021/04/08 02:26:14;;;;;;;1.98;1.60;;;1.90;1.00;;;;;;5054964;28;20160;-73
2021/04/08 02:28:41;;;;;;;1.13;1.10;;;1.90;1.00;;;;;;5069570;28;20167;-72
2021/04/08 02:31:08;;;;;;;3.20;0.95;;;1.80;1.00;;;;;;5074457;28;20205;-73
2021/04/08 02:33:35;;;;;;;1.50;1.10;;;;;;;;;;5074622;28;20163;-73
2021/04/08 02:36:05;;;;;;;3.17;1.50;;;1.90;1.00;;;;;;5074960;28;20159;-72
2021/04/08 02:38:33;;;;;;;1.08;1.00;;;1.80;1.00;;;;;;5075123;28;20201;-73
2021/04/08 02:41:02;;;;;;;1.25;1.15;;;1.70;1.00;;;;;;5074794;28;20178;-72
2021/04/08 02:43:28;;;;;;;4.43;1.08;;;;;;;;;;5074233;28;20175;-73
2021/04/08 02:45:55;;;;;;;6.30;2.05;;;;;;;;;;5074608;28;20163;-73
2021/04/08 02:48:24;;;;;;;7.80;1.60;;;1.50;1.00;;;;;;5073967;28;20175;-72
2021/04/08 02:51:00;;;;;;;1.58;1.33;;;1.40;1.00;;;;;;5074223;28;20194;-73
2021/04/08 02:53:30;;;;;;;3.17;1.05;;;1.30;1.00;;;;;;5070275;28;20194;-71
2021/04/08 02:56:03;;;;;;;3.25;1.77;;;1.10;1.00;;;;;;5054562;28;20163;-71
2021/04/08 02:58:31;;;;;;;2.35;1.73;;;1.00;1.00;;;;;;5073569;28;20178;-71
2021/04/08 03:01:01;;;;;;;1.90;1.60;;;1.00;1.00;;;;;;5074204;28;20178;-71
2021/04/08 03:03:45;;;;;;;2.25;1.08;;;0.80;1.00;;;;;;5073628;28;20231;-71
2021/04/08 03:06:12;;;;;;;4.97;1.58;;;0.80;1.00;;;;;;5054523;28;20306;-71
2021/04/08 03:08:41;;;;;;;2.10;1.58;;;0.80;1.00;;;;;;5065296;28;20811;-71
2021/04/08 03:11:10;;;;;;;3.10;1.33;;;0.70;1.00;;;;;;5073797;28;20221;-71
2021/04/08 03:13:40;;;;;;;5.57;1.85;;;0.70;1.00;;;;;;5072223;28;20286;-72
2021/04/08 03:16:16;;;;;;;2.25;1.75;;;0.70;1.00;;;;;;5073634;28;20186;-71
2021/04/08 03:18:44;;;;;;;6.93;2.50;;;0.60;1.00;;;;;;5072872;28;20497;-72
2021/04/08 03:21:11;;;;;;;2.40;1.90;;;0.60;1.00;;;;;;5072699;28;20207;-72
2021/04/08 03:23:37;;;;;;;2.58;1.90;;;0.60;1.00;;;;;;5074189;28;20528;-73
2021/04/08 03:26:04;;;;;;;3.20;1.80;;;0.50;1.00;;;;;;5073823;28;20163;-73
2021/04/08 03:28:31;;;;;;;3.13;2.10;;;0.50;1.00;;;;;;5072951;28;20425;-73
2021/04/08 03:31:03;;;;;;;4.13;1.85;;;0.60;1.00;;;;;;5073151;28;20195;-73
2021/04/08 03:33:32;;;;;;;5.53;2.05;;;0.50;1.00;;;;;;5073540;28;20194;-73
2021/04/08 03:36:00;;;;;;;2.30;1.80;;;0.50;1.00;;;;;;5073920;28;20155;-72
2021/04/08 03:38:26;;;;;;;2.40;2.05;;;0.50;1.00;;;;;;5073585;28;20630;-72
2021/04/08 03:40:56;;;;;;;4.82;1.92;;;0.50;1.00;;;;;;5076773;28;20167;-71
2021/04/08 03:43:24;;;;;;;6.10;1.77;;;0.50;1.00;;;;;;5084605;28;20194;-71
2021/04/08 03:45:50;;;;;;;3.00;1.95;;;;;;;;;;5072923;28;20194;-71
2021/04/08 03:48:17;;;;;;;5.43;2.17;;;0.60;1.00;;;;;;5073181;28;20189;-71
2021/04/08 03:50:44;;;;;;;3.38;1.27;;;0.60;1.00;;;;;;5073287;28;20186;-71
2021/04/08 03:53:10;;;;;;;2.92;1.42;;;0.60;1.00;;;;;;5072377;28;20171;-71
2021/04/08 03:55:39;;;;;;;2.97;1.23;;;0.70;1.00;;;;;;5073116;28;20664;-71
2021/04/08 03:58:08;;;;;;;3.60;2.05;;;0.70;1.00;;;;;;5073400;28;20648;-71
2021/04/08 04:00:36;;;;;;;1.90;1.38;;;0.70;1.00;;;;;;5072808;28;20175;-71
2021/04/08 04:03:03;;;;;;;1.20;1.00;;;0.70;1.00;;;;;;5073212;28;20163;-71
2021/04/08 04:05:30;;;;;;;3.60;1.88;;;;;;;;;;5073612;28;20166;-72
2021/04/08 04:07:56;;;;;;;4.60;0.98;;;0.70;1.00;;;;;;5073401;28;20208;-71
2021/04/08 04:10:22;;;;;;;2.40;1.98;;;0.60;1.00;;;;;;5073414;28;20649;-72
2021/04/08 04:12:53;;;;;;;1.90;0.97;;;0.70;1.00;;;;;;5073171;28;20173;-72
2021/04/08 04:15:21;;;;;;;4.40;1.80;;;0.60;1.00;;;;;;5073287;28;20475;-72
2021/04/08 04:17:47;;;;;;;1.65;1.25;;;0.60;1.00;;;;;;5072627;28;20245;-71
2021/04/08 04:20:15;;;;;;;1.02;0.80;;;0.70;1.00;;;;;;5072036;28;20806;-71
2021/04/08 04:22:42;;;;;;;1.75;1.65;;;0.80;1.00;;;;;;5070891;28;20707;-72
2021/04/08 04:25:10;;;;;;;4.10;1.48;;;0.70;1.00;;;;;;5075796;28;20155;-71
2021/04/08 04:27:36;;;;;;;1.23;0.93;;;0.60;1.00;;;;;;5076627;28;20253;-72
2021/04/08 04:30:07;;;;;;;1.80;1.20;;;0.70;1.00;;;;;;5076660;28;20190;-71
2021/04/08 04:32:33;;;;;;;1.30;1.20;;;0.70;1.00;;;;;;5076437;28;20171;-71
2021/04/08 04:34:59;;;;;;;1.05;0.98;;;;;;;;;;5088749;28;20158;-71
2021/04/08 04:37:25;;;;;;;4.28;1.60;;;0.70;1.00;;;;;;5081090;28;20262;-72
2021/04/08 04:39:51;;;;;;;1.63;1.10;;;0.80;1.00;;;;;;5076544;28;20706;-72
2021/04/08 04:42:17;;;;;;;5.50;1.00;;;0.80;1.00;;;;;;5076961;28;20163;-71
2021/04/08 04:44:43;;;;;;;1.83;1.73;;;0.80;1.00;;;;;;5076384;28;20500;-72
2021/04/08 04:47:08;;;;;;;0.95;0.95;;;0.80;1.00;;;;;;5062454;28;20283;-72
2021/04/08 04:49:34;;;;;;;5.23;1.80;;;0.90;1.00;;;;;;5074609;28;20282;-72
2021/04/08 04:52:00;;;;;;;3.10;2.03;;;0.90;1.00;;;;;;5076318;28;20175;-71
2021/04/08 04:54:26;;;;;;;2.30;1.70;;;1.00;1.00;;;;;;5066137;28;20449;-72
2021/04/08 04:56:52;;;;;;;6.10;1.77;;;1.00;1.00;;;;;;5076727;28;20205;-72
2021/04/08 04:59:52;;;;;;;1.80;1.05;;;1.10;1.00;;;;;;5076881;28;20174;-79
2021/04/08 05:02:18;;;;;;;9.25;2.17;;;1.20;1.00;;;;;;5075425;28;20198;-72
2021/04/08 05:04:44;;;;;;;1.43;1.30;;;;;;;;;;5076364;28;20272;-73
2021/04/08 05:07:10;;;;;;;2.55;0.93;;;;;;;;;;5076613;28;20212;-73
2021/04/08 05:09:47;;;;;;;0.88;0.88;;;1.40;1.00;;;;;;5076684;28;20511;-73
2021/04/08 05:12:17;;;;;;;4.30;0.80;;;1.50;1.00;;;;;;5076487;28;20155;-73
2021/04/08 05:14:42;;;;;;;3.08;1.27;;;1.60;1.00;;;;;;5075680;28;20624;-73
2021/04/08 05:17:23;;;;;;;2.17;1.27;;;1.60;1.00;;;;;;5076736;28;20179;-80
2021/04/08 05:19:59;;;;;;;1.95;1.20;;;1.80;1.00;;;;;;5073120;28;20180;-79
2021/04/08 05:22:25;;;;;;;1.50;1.40;;;1.90;1.00;;;;;;5072015;28;20194;-74
2021/04/08 05:24:51;;;;;;;1.25;1.15;;;1.90;1.00;;;;;;5076697;28;20205;-72
2021/04/08 05:27:18;;;;;;;2.35;1.33;;;2.10;1.00;;;;;;5075706;28;20203;-72
2021/04/08 05:29:43;;;;;;;1.20;1.10;;;2.10;1.00;;;;;;5067852;28;20187;-72
2021/04/08 05:32:09;;;;;;;2.10;1.47;;;2.20;1.00;;;;;;5074013;28;20225;-72
2021/04/08 05:34:36;;;;;;;18.00;3.50;;;;;;;;;;5074329;28;20191;-72
2021/04/08 05:37:01;;;;;;;2.05;1.27;;;2.40;1.00;;;;;;5072013;28;20228;-72
2021/04/08 05:39:28;;;;;;;2.13;1.07;;;2.50;1.00;;;;;;5064644;28;20278;-71
2021/04/08 05:42:02;;;;;;;1.60;1.50;;;2.60;1.00;;;;;;5068444;28;20171;-72
2021/04/08 05:44:28;;;;;;;3.10;2.15;;;2.70;1.00;;;;;;5075042;28;20236;-72
2021/04/08 05:46:54;;;;;;;6.05;2.20;;;2.70;1.00;;;;;;5075632;28;20656;-72
2021/04/08 05:49:23;;;;;;;2.97;2.13;;;2.80;1.00;;;;;;5074825;28;20179;-72
2021/04/08 05:51:49;;;;;;;6.53;1.63;;;2.90;1.00;;;;;;5075677;28;20460;-72
2021/04/08 05:54:15;;;;;;;4.28;1.90;;;3.00;1.00;;;;;;5075587;28;20254;-72
2021/04/08 05:56:41;;;;;;;2.20;1.50;;;3.10;1.00;;;;;;5074822;28;20171;-72
2021/04/08 05:59:06;;;;;;;2.47;1.33;;;3.20;1.00;;;;;;5075131;28;20175;-72
2021/04/08 06:01:32;;;;;;;4.03;1.90;;;3.30;1.00;;;;;;5075303;28;20174;-72
2021/04/08 06:03:59;;;;;;;14.23;3.43;;;3.40;1.00;;;;;;5070990;28;20167;-73
2021/04/08 06:06:25;;;;;;;7.72;2.00;;;;;;;;;;5075336;28;20389;-72
2021/04/08 06:08:51;;;;;;;5.55;2.03;;;3.60;1.00;;;;;;5073905;28;20599;-74
2021/04/08 06:11:17;;;;;;;4.20;1.80;;;;;;;;;;5075497;28;20242;-73
2021/04/08 06:13:43;;;;;;;3.73;2.30;;;3.70;1.00;;;;;;5075575;28;20582;-73
2021/04/08 06:16:17;;;;;;;1.65;1.55;;;3.70;1.00;;;;;;5075345;28;20386;-73
2021/04/08 06:18:43;;;;;;;4.35;2.38;;;3.90;1.00;;;;;;5074736;28;20174;-73
2021/04/08 06:21:09;;;;;;;6.30;2.60;;;;;;;;;;5074389;28;20175;-73
2021/04/08 06:23:35;;;;;;;2.30;2.00;;;4.10;1.00;;;;;;5074197;28;20436;-72
2021/04/08 06:26:00;;;;;;;4.33;1.63;;;4.20;1.00;;;;;;5074713;28;20163;-74
2021/04/08 06:28:26;;;;;;;3.53;2.33;;;;;;;;;;5071856;28;20433;-73
2021/04/08 06:30:53;;;;;;;4.93;2.23;;;4.40;1.00;;;;;;5074808;28;20258;-73
2021/04/08 06:33:19;;;;;;;4.47;2.45;;;;;;;;;;5075057;28;20424;-74
2021/04/08 06:35:53;;;;;;;3.58;2.55;;;4.40;1.00;;;;;;5074798;28;20159;-73
2021/04/08 06:38:18;;;;;;;4.47;2.80;;;4.40;1.00;;;;;;5074441;28;20225;-74
2021/04/08 06:40:59;;;;;;;3.63;2.50;;;4.50;1.00;;;;;;5072117;28;20344;-73
2021/04/08 06:43:26;;;;;;;7.35;2.75;;;;;;;;;;5058419;28;21566;-73
2021/04/08 06:45:55;;;;;;;7.20;3.45;;;4.60;1.00;;;;;;5067492;28;20252;-74
2021/04/08 06:48:24;;;;;;;4.07;2.72;;;4.70;1.00;;;;;;5072197;28;20208;-73
2021/04/08 06:50:52;;;;;;;2.75;2.30;;;;;;;;;;5071659;28;20199;-74
2021/04/08 06:53:19;;;;;;;12.52;3.08;;;;;;;;;;5065881;28;20191;-73
2021/04/08 06:55:47;;;;;;;29.10;5.90;;;4.80;1.00;;;;;;5071664;28;20172;-73
2021/04/08 06:58:13;;;;;;;8.02;2.60;;;;;;;;;;5072336;28;20202;-72
2021/04/08 07:00:39;;;;;;;5.25;2.80;;;;;;;;;;5063467;28;20265;-72
2021/04/08 07:03:08;;;;;;;9.80;3.33;;;9.30;1.00;;;;;;5067823;28;20194;-72
2021/04/08 07:05:34;;;;;;;7.00;2.70;;;;;;;;;;5072047;28;20684;-72
2021/04/08 07:08:00;;;;;;;4.80;3.40;;;;;;;;;;5073265;28;20261;-72
2021/04/08 07:10:26;;;;;;;10.00;3.03;;;;;;;;;;5072996;28;20460;-72
2021/04/08 07:12:55;;;;;;;6.20;3.38;;;5.30;1.00;;;;;;5073004;28;20414;-72
2021/04/08 07:15:22;;;;;;;5.50;2.90;;;5.50;1.00;;;;;;5068047;28;20660;-72
2021/04/08 07:17:48;;;;;;;8.00;3.50;;;;;;;;;;5073152;28;20378;-72
2021/04/08 07:20:14;;;;;;;3.47;2.72;;;;;;;;;;5071724;28;20830;-72
2021/04/08 07:22:40;;;;;;;5.53;2.60;;;;;;;;;;5067792;28;20187;-72
2021/04/08 07:25:20;;;;;;;5.30;2.80;;;5.90;1.00;;;;;;5071996;28;20426;-72
2021/04/08 07:27:46;;;;;;;7.63;3.37;;;6.00;1.00;;;;;;5072832;28;20421;-72
2021/04/08 07:30:17;;;;;;;9.70;3.90;;;6.20;1.00;;;;;;5071495;28;20495;-72
2021/04/08 07:32:43;;;;;;;5.00;2.73;;;;;;;;;;5070594;28;20429;-73
2021/04/08 07:35:09;;;;;;;10.40;2.78;;;;;;;;;;5072151;28;20457;-72
2021/04/08 07:37:36;;;;;;;3.60;2.97;;;6.20;1.00;;;;;;5061719;28;20172;-72
2021/04/08 07:40:04;;;;;;;4.60;2.73;;;6.50;1.00;;;;;;5053060;28;20432;-73
2021/04/08 07:42:33;;;;;;;4.40;2.50;;;6.50;1.00;;;;;;5068728;28;20456;-72
2021/04/08 07:45:01;;;;;;;6.57;2.90;;;6.40;1.00;;;;;;5071006;28;20186;-72
2021/04/08 07:47:35;;;;;;;3.83;3.00;;;6.50;1.00;;;;;;5071937;28;20505;-72
2021/04/08 07:50:03;;;;;;;6.03;2.77;;;6.60;1.00;;;;;;5076824;28;20450;-72
2021/04/08 07:52:32;;;;;;;9.73;3.40;;;6.60;1.00;;;;;;5075666;28;20421;-72
2021/04/08 07:55:00;;;;;;;5.80;2.80;;;6.60;1.00;;;;;;5053864;28;20434;-72
2021/04/08 07:57:27;;;;;;;6.07;3.50;;;6.60;1.00;;;;;;5070524;28;20405;-72
2021/04/08 07:59:53;;;;;;;9.50;3.00;;;;;;;;;;5073582;28;20425;-72
2021/04/08 08:02:24;;;;;;;10.67;2.90;;;6.90;1.00;;;;;;5072699;28;20393;-72
2021/04/08 08:04:50;;;;;;;8.27;3.20;;;;;;;;;;5071322;28;20456;-72
2021/04/08 08:07:27;;;;;;;12.23;2.77;;;6.90;1.00;;;;;;5072632;28;20880;-72
2021/04/08 08:09:53;;;;;;;4.93;3.03;;;;;;;;;;5067650;28;20463;-72
2021/04/08 08:12:19;;;;;;;8.80;3.63;;;;;;;;;;5072168;28;20409;-72
2021/04/08 08:14:45;;;;;;;10.70;3.60;;;;;;;;;;5072145;28;20923;-72
2021/04/08 08:17:15;;;;;;;4.90;3.07;;;6.90;1.00;;;;;;5074977;28;20781;-72
2021/04/08 08:19:45;;;;;;;8.33;3.00;;;7.10;1.00;;;;;;5074194;28;20466;-72
2021/04/08 08:22:19;;;;;;;14.30;2.67;;;7.20;1.00;;;;;;5071965;28;20445;-72
2021/04/08 08:24:53;;;;;;;9.60;3.70;;;7.30;1.00;;;;;;5073034;28;20429;-72
2021/04/08 08:27:19;;;;;;;4.10;2.67;;;;;;;;;;5083616;28;20460;-72
2021/04/08 08:29:57;;;;;;;5.17;2.63;;;7.30;1.00;;;;;;5064081;28;20429;-72
2021/04/08 08:32:24;;;;;;;5.13;2.37;;;;;;;;;;5069471;28;20421;-72
2021/04/08 08:34:50;;;;;;;6.90;2.80;;;;;;;;;;5071098;28;20915;-72
2021/04/08 08:37:17;;;;;;;6.07;2.93;;;;;;;;;;5056555;28;20418;-72
2021/04/08 08:39:44;;;;;;;7.00;2.80;;;;;;;;;;5071778;28;20421;-73
2021/04/08 08:42:13;;;;;;;8.67;2.33;;;7.90;1.00;;;;;;5071674;28;20406;-73
2021/04/08 08:44:40;;;;;;;3.40;1.70;;;8.00;1.00;;;;;;5071350;28;20424;-73
2021/04/08 08:47:19;;;;;;;6.10;2.60;;;8.00;1.00;;;;;;5071967;28;20405;-74
2021/04/08 08:49:57;;;;;;;3.40;2.23;;;8.00;1.00;;;;;;5069342;28;20892;-73
2021/04/08 08:52:29;;;;;;;10.73;3.30;;;7.90;1.00;;;;;;5052113;28;20398;-73
2021/04/08 08:54:55;;;;;;;5.53;2.60;;;;;;;;;;5059892;28;20414;-73
2021/04/08 08:57:22;;;;;;;5.40;2.60;;;8.20;1.00;;;;;;5071760;28;20551;-74
2021/04/08 08:59:49;;;;;;;2.77;2.00;;;8.00;1.00;;;;;;5071416;28;20417;-74
2021/04/08 09:02:16;;;;;;;6.13;2.87;;;;;;;;;;5072084;28;20451;-74
2021/04/08 09:04:47;;;;;;;3.50;2.43;;;8.00;1.00;;;;;;5071852;28;20405;-73
2021/04/08 09:07:14;;;;;;;6.60;2.37;;;;;;;;;;5072079;28;20392;-73
2021/04/08 09:09:51;;;;;;;3.33;2.17;;;8.60;1.00;;;;;;5071646;28;20424;-73
2021/04/08 09:12:19;;;;;;;3.50;1.80;;;;;;;;;;5075968;28;20393;-72
2021/04/08 09:14:46;;;;;;;2.30;2.03;;;8.70;1.00;;;;;;5075640;28;20390;-72
2021/04/08 09:17:13;;;;;;;3.20;1.90;;;;;;;;;;5074317;28;20432;-72
2021/04/08 09:19:39;;;;;;;2.50;1.90;;;;;;;;;;5075098;28;20428;-72
2021/04/08 09:22:08;;;;;;;7.97;1.87;;;8.50;1.00;;;;;;5075000;28;20410;-72
2021/04/08 09:24:47;;;;;;;8.33;1.90;;;8.20;1.00;;;;;;5074084;28;20514;-72
2021/04/08 09:27:14;;;;;;;8.73;1.50;;;;;;;;;;5072417;28;20421;-74
2021/04/08 09:29:43;;;;;;;1.13;1.13;;;;;;;;;;5074582;28;20418;-74
2021/04/08 09:32:28;;;;;;;2.53;1.20;;;;;;;;;;5074762;28;20416;-73
2021/04/08 09:37:44;;;;;;;3.50;1.07;;;7.70;1.00;;;;;;5075429;28;20421;-73
2021/04/08 09:40:35;;;;;;;1.33;0.90;;;7.80;1.00;;;;;;5075018;28;20452;-74
2021/04/08 09:43:01;;;;;;;2.70;1.70;;;;;;;;;;5053321;28;20421;-73
2021/04/08 09:45:27;;;;;;;3.03;1.70;;;8.00;1.00;;;;;;5052738;28;20437;-73
2021/04/08 09:48:08;;;;;;;5.30;2.10;;;8.30;1.00;;;;;;5052636;28;20422;-74
2021/04/08 09:50:49;;;;;;;1.87;1.53;;;8.50;1.00;;;;;;5052732;28;20481;-74
2021/04/08 09:53:16;;;;;;;3.20;1.87;;;8.50;1.00;;;;;;5052685;28;20405;-73
2021/04/08 09:56:07;;;;;;;3.83;1.63;;;8.90;1.00;;;;;;5052775;28;20403;-74
2021/04/08 09:58:35;;;;;;;2.60;1.70;;;9.20;1.00;;;;;;5052467;28;20480;-72
2021/04/08 10:01:04;;;;;;;3.80;2.03;;;9.40;1.00;;;;;;5047238;28;20438;-72
2021/04/08 10:03:30;;;;;;;5.27;1.70;;;;;;;;;;5039685;28;20936;-72
2021/04/08 10:05:56;;;;;;;4.67;2.47;;;;;;;;;;5040222;28;20410;-72
2021/04/08 10:08:24;;;;;;;3.30;2.20;;;10.40;1.00;;;;;;5052488;28;20440;-72
2021/04/08 10:10:53;;;;;;;2.90;1.70;;;;;;;;;;5052141;28;20493;-72
2021/04/08 10:13:27;;;;;;;2.20;1.77;;;10.50;1.00;;;;;;5052714;28;20667;-73
2021/04/08 10:15:58;;;;;;;6.03;2.00;;;10.50;1.00;;;;;;5052148;28;20493;-74
2021/04/08 10:18:32;;;;;;;4.13;2.03;;;10.50;1.00;;;;;;5051964;28;20430;-74
2021/04/08 10:20:59;;;;;;;10.10;2.50;;;10.40;1.00;;;;;;5064457;28;20793;-74
2021/04/08 10:23:29;;;;;;;2.80;2.07;;;10.20;1.00;;;;;;5073729;28;20420;-74
2021/04/08 10:25:57;;;;;;;2.97;2.10;;;10.10;1.00;;;;;;5080973;28;20441;-73
2021/04/08 10:28:23;;;;;;;2.23;1.87;;;;;;;;;;5070162;28;20433;-73
2021/04/08 10:30:49;;;;;;;6.63;1.93;;;9.80;1.00;;;;;;5072710;28;20472;-72
2021/04/08 10:33:19;;;;;;;1.50;1.40;;;;;;;;;;5072126;28;20487;-72
2021/04/08 10:35:45;;;;;;;4.30;1.70;;;;;;;;;;5073964;28;20179;-72
2021/04/08 10:38:12;;;;;;;3.93;1.50;;;9.80;1.00;;;;;;5074217;28;20520;-72
2021/04/08 10:40:38;;;;;;;2.13;1.50;;;9.90;1.00;;;;;;5073325;28;20941;-72
2021/04/08 10:43:13;;;;;;;5.40;1.57;;;9.80;1.00;;;;;;5073736;28;20417;-72
2021/04/08 10:45:50;;;;;;;3.50;1.77;;;9.80;1.00;;;;;;5071713;28;20884;-72
2021/04/08 10:48:16;;;;;;;6.20;1.70;;;;;;;;;;5076228;28;20803;-75
2021/04/08 10:50:42;;;;;;;9.87;1.63;;;;;;;;;;5072582;28;20468;-74
2021/04/08 10:53:08;;;;;;;4.07;1.57;;;;;;;;;;5073564;28;20513;-74
2021/04/08 10:55:34;;;;;;;1.80;1.57;;;;;;;;;;5073326;28;20872;-74
2021/04/08 10:58:00;;;;;;;6.07;1.77;;;;;;;;;;5073041;28;20525;-76
2021/04/08 11:00:26;;;;;;;2.40;1.60;;;;;;;;;;5070593;28;20518;-76
2021/04/08 11:02:53;;;;;;;3.77;2.03;;;;;;;;;;5073287;28;20447;-77
2021/04/08 11:05:24;;;;;;;2.87;1.57;;;10.10;1.00;;;;;;5073466;28;20401;-75
2021/04/08 11:07:55;;;;;;;11.47;2.00;;;10.30;1.00;;;;;;5070947;28;20437;-75
2021/04/08 11:10:29;;;;;;;4.73;1.87;;;10.50;1.00;;;;;;5073266;28;20830;-75
2021/04/08 11:12:56;;;;;;;4.50;2.10;;;10.40;1.00;;;;;;5073780;28;20419;-76
2021/04/08 11:15:28;;;;;;;3.50;2.27;;;10.50;1.00;;;;;;5072770;28;20384;-76
2021/04/08 11:17:56;;;;;;;15.73;2.27;;;10.40;1.00;;;;;;5073297;28;20405;-76
2021/04/08 11:20:47;;;;;;;4.60;2.20;;;10.30;1.00;;;;;;5073429;28;20397;-76
2021/04/08 11:23:17;;;;;;;3.93;1.80;;;10.30;1.00;;;;;;5072296;28;20935;-76
2021/04/08 11:25:43;;;;;;;4.00;1.73;;;10.30;1.00;;;;;;5072030;28;20994;-74
2021/04/08 11:28:10;;;;;;;4.47;2.17;;;10.20;1.00;;;;;;5071006;28;20456;-72
2021/04/08 11:30:41;;;;;;;2.50;1.70;;;10.10;1.00;;;;;;5071218;28;20879;-72
2021/04/08 11:33:12;;;;;;;9.80;2.37;;;10.00;1.00;;;;;;5068904;28;20527;-72
2021/04/08 11:35:41;;;;;;;4.40;1.87;;;10.00;1.00;;;;;;5072381;28;20432;-73
2021/04/08 11:38:14;;;;;;;7.83;2.60;;;10.10;1.00;;;;;;5069803;28;20437;-73
2021/04/08 11:40:43;;;;;;;3.23;1.77;;;10.10;1.00;;;;;;5084331;28;20442;-73
2021/04/08 11:43:18;;;;;;;4.03;1.93;;;9.80;1.00;;;;;;5089434;28;20425;-74
2021/04/08 11:45:44;;;;;;;1.40;1.30;;;9.70;1.00;;;;;;5072571;28;20470;-74
2021/04/08 11:48:10;;;;;;;5.83;1.97;;;;;;;;;;5071488;28;20417;-73
2021/04/08 11:50:45;;;;;;;2.87;1.80;;;9.70;1.00;;;;;;5072868;28;20453;-74
2021/04/08 11:53:16;;;;;;;3.20;2.33;;;9.90;1.00;;;;;;5070955;28;20423;-74
2021/04/08 11:55:50;;;;;;;3.57;1.93;;;10.00;1.00;;;;;;5069210;28;20426;-74
2021/04/08 11:58:30;;;;;;;3.47;1.40;;;10.20;1.00;;;;;;5070018;28;20912;-74
2021/04/08 12:01:16;;;;;;;2.40;1.70;;;10.20;1.00;;;;;;5071949;28;20416;-74
2021/04/08 12:03:44;;;;;;;3.60;1.80;;;10.50;1.00;;;;;;5072249;28;20476;-73
2021/04/08 12:06:19;;;;;;;15.00;1.97;;;10.70;1.00;;;;;;5072196;28;20483;-74
2021/04/08 12:08:58;;;;;;;3.40;1.87;;;10.80;1.00;;;;;;5064104;28;20511;-74
2021/04/08 12:11:24;;;;;;;5.63;2.50;;;;;;;;;;5069105;28;20940;-74
2021/04/08 12:14:04;;;;;;;2.13;1.90;;;10.60;1.00;;;;;;5071816;28;20425;-74
2021/04/08 12:16:30;;;;;;;2.30;1.73;;;;;;;;;;5072044;28;20764;-73
2021/04/08 12:18:56;;;;;;;7.33;1.83;;;;;;;;;;5072624;28;20428;-74
2021/04/08 12:21:25;;;;;;;2.57;2.20;;;10.50;1.00;;;;;;5072158;28;20404;-74
2021/04/08 12:23:51;;;;;;;3.00;1.70;;;;;;;;;;5070650;28;20417;-74
2021/04/08 12:26:37;;;;;;;4.13;1.60;;;10.60;1.00;;;;;;5073587;28;20440;-74
2021/04/08 12:29:04;;;;;;;2.30;1.70;;;10.60;1.00;;;;;;5070305;28;20439;-73
2021/04/08 12:31:30;;;;;;;7.90;2.30;;;;;;;;;;5067029;28;20504;-74
2021/04/08 12:33:56;;;;;;;5.50;1.80;;;;;;;;;;5077628;28;20473;-73
2021/04/08 12:36:22;;;;;;;3.50;1.83;;;;;;;;;;5077973;28;20919;-73
2021/04/08 12:38:48;;;;;;;1.73;1.63;;;10.00;1.00;;;;;;5072033;28;20916;-74
2021/04/08 12:41:14;;;;;;;4.73;1.87;;;10.10;1.00;;;;;;5070769;28;20413;-74
2021/04/08 12:43:40;;;;;;;4.80;1.60;;;;;;;;;;5072600;28;20160;-72
2021/04/08 12:46:06;;;;;;;1.80;1.70;;;;;;;;;;5074478;28;20463;-72
2021/04/08 12:48:32;;;;;;;2.60;1.30;;;;;;;;;;5075804;28;20421;-72
2021/04/08 12:50:59;;;;;;;8.80;2.07;;;;;;;;;;5069485;28;20457;-72
2021/04/08 12:53:25;;;;;;;2.03;1.83;;;10.60;1.00;;;;;;5076001;28;20484;-72
2021/04/08 12:55:55;;;;;;;1.97;1.70;;;10.80;1.00;;;;;;5075356;28;20528;-72
2021/04/08 12:58:22;;;;;;;5.20;2.23;;;11.10;1.00;;;;;;5065544;28;20462;-74
2021/04/08 13:00:48;;;;;;;3.30;1.47;;;11.20;1.00;;;;;;5075539;28;20418;-74
2021/04/08 13:03:15;;;;;;;1.97;1.53;;;11.10;1.00;;;;;;5088529;28;20828;-74
2021/04/08 13:05:42;;;;;;;2.13;1.50;;;11.20;1.00;;;;;;5088524;28;20425;-73
2021/04/08 13:08:20;;;;;;;3.10;1.60;;;11.30;1.00;;;;;;5075955;28;20429;-75
2021/04/08 13:10:46;;;;;;;7.30;2.40;;;;;;;;;;5073179;28;20552;-73
2021/04/08 13:13:12;;;;;;;6.40;2.53;;;;;;;;;;5074220;28;20421;-73
2021/04/08 13:15:38;;;;;;;2.33;1.67;;;10.70;1.00;;;;;;5075030;28;20411;-73
2021/04/08 13:18:05;;;;;;;4.03;1.70;;;;;;;;;;5073614;28;20486;-73
2021/04/08 14:26:37;;;;;;;5.03;1.70;;;11.50;1.00;;;;;;5085560;27;21018;-72
2021/04/08 14:29:02;;;;;;;2.43;1.77;;;11.70;1.00;;;;;;5078064;28;20406;-72
2021/04/08 14:31:28;;;;;;;1.50;1.40;;;11.80;1.00;;;;;;5069653;28;20211;-72
2021/04/08 14:33:54;;;;;;;2.90;1.50;;;11.90;1.00;;;;;;5075291;28;20202;-72
2021/04/08 14:36:20;;;;;;;2.70;1.70;;;11.80;1.00;;;;;;5069220;28;20167;-73
2021/04/08 14:38:46;;;;;;;2.33;1.70;;;11.90;1.00;;;;;;5089497;28;20492;-73
2021/04/08 14:41:12;;;;;;;2.10;1.50;;;;;;;;;;5090749;28;20483;-73
2021/04/08 14:43:38;;;;;;;2.27;1.80;;;11.80;1.00;;;;;;5090792;28;20170;-74